Flight Track Log - Related Links

Times and Time Zones

All times are in EDT time to prevent confusion due to time zone crossing. See the SWA2336 flight status page for this flight to view local times or setup timezone preferences in your user account.

Time Position Orientation Groundspeed Altitude Reporting Facility
EDT Latitude Longitude Course Direction KTS MPH feet Rate Location/Type
Sat 07:49:54 PM 32.7558 -117.2856 278° West 202 232 3,700  Level Los Angeles Center
Sat 07:50:56 PM 32.7194 -117.3383 231° Southwest 222 255 6,700 2,661 Climbing Los Angeles Center
Sat 07:51:58 PM 32.6706 -117.2931 142° Southeast 236 272 9,200 1,839 Climbing Los Angeles Center
Sat 07:53:00 PM 32.6442 -117.2067 110° East 273 314 10,500 1,742 Climbing Los Angeles Center
Sat 07:54:02 PM 32.6283 -117.0925 99° East 337 388 12,800 2,341 Climbing Los Angeles Center
Sat 07:55:03 PM 32.6114 -116.9753 100° East 356 410 15,300 2,634 Climbing Los Angeles Center
Sat 07:56:05 PM 32.6283 -116.8267 82° East 377 434 18,200 2,468 Climbing Los Angeles Center
Sat 07:57:07 PM 32.7161 -116.7564 34° Northeast 380 437 20,400 2,177 Climbing Los Angeles Center
Sat 07:58:09 PM 32.8119 -116.6936 29° Northeast 389 448 22,700 2,032 Climbing Los Angeles Center
Sat 07:59:11 PM 32.9131 -116.6292 28° Northeast 402 463 24,600 1,756 Climbing Los Angeles Center
Sat 08:00:12 PM 33.0183 -116.5603 29° Northeast 421 484 26,300 1,707 Climbing Los Angeles Center
Sat 08:01:14 PM 33.1247 -116.4853 31° Northeast 438 504 28,100 1,694 Climbing Los Angeles Center
Sat 08:02:16 PM 33.2150 -116.3803 44° Northeast 449 517 29,800 1,452 Climbing Los Angeles Center
Sat 08:03:18 PM 33.3061 -116.2703 45° Northeast 459 528 31,100 1,171 Climbing Los Angeles Center
Sat 08:04:19 PM 33.3986 -116.1597 45° Northeast 466 536 32,200 1,268 Climbing Los Angeles Center
Sat 08:05:21 PM 33.4928 -116.0464 45° Northeast 475 547 33,700 1,452 Climbing Los Angeles Center
Sat 08:06:23 PM 33.6031 -115.9111 46° Northeast 474 545 35,200 1,258 Climbing Los Angeles Center
Sat 08:07:25 PM 33.6964 -115.7969 45° Northeast 477 549 36,300 976 Climbing Los Angeles Center
Sat 08:08:26 PM 33.7767 -115.6642 54° Northeast 487 560 37,200 927 Climbing Los Angeles Center
Sat 08:09:28 PM 33.8569 -115.5317 54° Northeast 491 565 38,200 871 Climbing Los Angeles Center
Sat 08:10:30 PM 33.9375 -115.3992 54° Northeast 491 565 39,000 387 Climbing Los Angeles Center
Sat 08:11:32 PM 34.0194 -115.2639 54° Northeast 496 571 39,000  Level Los Angeles Center
Sat 08:12:34 PM 34.1033 -115.1236 54° Northeast 510 587 39,000  Level Los Angeles Center
Sat 08:13:35 PM 34.2022 -114.9622 53° Northeast 501 577 39,000  Level Los Angeles Center
Sat 08:14:37 PM 34.2839 -114.8264 54° Northeast 500 575 39,000  Level Los Angeles Center
Sat 08:15:39 PM 34.3647 -114.6906 54° Northeast 499 574 39,000  Level Los Angeles Center
Sat 08:16:41 PM 34.4458 -114.5536 54° Northeast 500 575 39,000  Level Los Angeles Center
Sat 08:17:43 PM 34.5267 -114.4172 54° Northeast 498 573 39,000  Level Los Angeles Center
Sat 08:18:45 PM 34.6064 -114.2817 54° Northeast 497 572 39,000  Level Los Angeles Center
Sat 08:19:47 PM 34.6981 -114.1261 54° Northeast 498 573 39,000  Level Los Angeles Center
Sat 08:20:48 PM 34.7744 -113.9939 55° Northeast 483 556 39,000  Level Los Angeles Center
Sat 08:21:50 PM 34.8458 -113.8717 55° Northeast 480 552 39,000  Level Los Angeles Center
Sat 08:22:52 PM 34.9375 -113.7142 55° Northeast 476 548 39,000  Level Los Angeles Center
Sat 08:23:54 PM 35.0139 -113.5825 55° Northeast 477 549 39,000  Level Los Angeles Center
Sat 08:24:56 PM 35.0906 -113.4508 55° Northeast 478 550 39,000  Level Los Angeles Center
Sat 08:25:58 PM 35.1661 -113.3186 55° Northeast 476 548 39,000  Level Los Angeles Center
Sat 08:27:00 PM 35.2478 -113.1758 55° Northeast 476 548 39,000  Level Los Angeles Center
Sat 08:28:02 PM 35.3225 -113.0444 55° Northeast 473 544 39,000  Level Los Angeles Center
Sat 08:29:04 PM 35.4100 -112.8897 55° Northeast 482 555 39,000  Level Los Angeles Center
Sat 08:30:05 PM 35.4875 -112.7519 55° Northeast 489 563 39,000  Level Los Angeles Center
Sat 08:31:07 PM 35.5647 -112.6161 55° Northeast 489 563 39,000  Level Los Angeles Center
Sat 08:32:09 PM 35.6439 -112.4736 56° Northeast 478 550 39,000  Level Los Angeles Center
Sat 08:33:11 PM 35.7181 -112.3417 55° Northeast 472 543 39,000  Level Los Angeles Center
Sat 08:34:13 PM 35.7917 -112.2094 56° Northeast 471 542 39,000  Level Los Angeles Center
Sat 08:35:14 PM 35.8650 -112.0769 56° Northeast 471 542 39,000  Level Los Angeles Center
Sat 08:36:16 PM 35.9486 -111.9261 56° Northeast 470 541 39,000  Level Los Angeles Center
Sat 08:36:50 PM 35.9922 -111.8461 56° Northeast 473 544 39,000  Level Denver Center
Sat 08:37:52 PM 36.0658 -111.7108 56° Northeast 475 547 39,000  Level Denver Center
Sat 08:38:53 PM 36.1408 -111.5739 56° Northeast 480 552 39,000  Level Denver Center
Sat 08:39:54 PM 36.2150 -111.4383 56° Northeast 480 552 39,000  Level Denver Center
Sat 08:40:56 PM 36.2900 -111.3006 56° Northeast 482 555 39,000  Level Denver Center
Sat 08:41:57 PM 36.3658 -111.1611 56° Northeast 486 559 39,000  Level Denver Center
Sat 08:42:58 PM 36.4397 -111.0228 56° Northeast 486 559 39,000  Level Denver Center
Sat 08:44:00 PM 36.5142 -110.8856 56° Northeast 482 555 39,000  Level Denver Center
Sat 08:45:01 PM 36.6022 -110.7203 56° Northeast 481 554 39,000  Level Denver Center
Sat 08:46:02 PM 36.6767 -110.5828 56° Northeast 480 552 39,000  Level Denver Center
Sat 08:47:04 PM 36.7450 -110.4492 57° Northeast 470 541 39,000  Level Denver Center
Sat 08:48:05 PM 36.8156 -110.3144 57° Northeast 467 537 39,000  Level Denver Center
Sat 08:49:06 PM 36.8861 -110.1786 57° Northeast 469 540 39,000  Level Denver Center
Sat 08:50:08 PM 36.9614 -110.0361 57° Northeast 473 544 39,000  Level Denver Center
Sat 08:51:09 PM 37.0272 -109.9058 58° Northeast 467 537 39,000  Level Denver Center
Sat 08:52:10 PM 37.1061 -109.7531 57° Northeast 465 535 39,000  Level Denver Center
Sat 08:53:12 PM 37.1731 -109.6244 57° Northeast 460 529 39,000  Level Denver Center
Sat 08:54:13 PM 37.2503 -109.4736 57° Northeast 457 526 39,000  Level Denver Center
Sat 08:55:14 PM 37.3158 -109.3453 57° Northeast 455 524 39,000  Level Denver Center
Sat 08:56:15 PM 37.3839 -109.2139 57° Northeast 466 536 39,000  Level Denver Center
Sat 08:57:17 PM 37.4622 -109.0589 57° Northeast 468 539 39,000  Level Denver Center
Sat 08:58:18 PM 37.5300 -108.9253 57° Northeast 471 542 39,000  Level Denver Center
Sat 08:59:21 PM 37.6069 -108.7672 58° Northeast 474 545 39,000  Level Denver Center
Sat 09:00:23 PM 37.6739 -108.6356 57° Northeast 469 540 39,000  Level Denver Center
Sat 09:01:24 PM 37.7325 -108.4944 62° Northeast 472 543 39,000  Level Denver Center
Sat 09:02:25 PM 37.7836 -108.3111 71° East 492 566 39,000  Level Denver Center
Sat 09:03:26 PM 37.8253 -108.1547 71° East 492 566 39,000  Level Denver Center
Sat 09:04:28 PM 37.8747 -107.9733 71° East 490 564 39,000  Level Denver Center
Sat 09:05:29 PM 37.9094 -107.8400 72° East 496 571 39,000  Level Denver Center
Sat 09:06:30 PM 37.9594 -107.6564 71° East 494 568 39,000  Level Denver Center
Sat 09:07:31 PM 38.0086 -107.4700 71° East 499 574 39,000  Level Denver Center
Sat 09:08:33 PM 38.0497 -107.3117 72° East 495 570 39,000  Level Denver Center
Sat 09:09:34 PM 38.0886 -107.1647 71° East 495 570 39,000  Level Denver Center
Sat 09:10:35 PM 38.1394 -106.9681 72° East 490 564 39,000  Level Denver Center
Sat 09:11:37 PM 38.1831 -106.7983 72° East 489 563 39,000 -146 Level Denver Center
Sat 09:12:38 PM 38.2236 -106.6419 72° East 487 560 38,700 -590 Descending Denver Center
Sat 09:13:39 PM 38.2961 -106.5186 53° Northeast 457 526 37,800 -976 Descending Denver Center
Sat 09:14:41 PM 38.3919 -106.4000 44° Northeast 456 525 36,700 -1,024 Descending Denver Center
Sat 09:15:42 PM 38.4783 -106.2925 44° Northeast 437 503 35,700 -836 Descending Denver Center
Sat 09:16:43 PM 38.5647 -106.1844 44° Northeast 436 502 35,000 -341 Descending Denver Center
Sat 09:17:45 PM 38.6619 -106.0614 45° Northeast 439 505 35,000  Level Denver Center
Sat 09:18:46 PM 38.7492 -105.9519 44° Northeast 434 499 35,000 -1,475 Level Denver Center
Sat 09:19:47 PM 38.8367 -105.8419 44° Northeast 436 502 32,000 -2,732 Descending Denver Center
Sat 09:20:49 PM 38.9242 -105.7308 45° Northeast 438 504 29,400 -2,341 Descending Denver Center
Sat 09:21:50 PM 39.0075 -105.6239 45° Northeast 424 488 27,200 -2,164 Descending Denver Center
Sat 09:22:51 PM 39.0894 -105.5175 45° Northeast 411 473 25,000 -2,000 Descending Denver Center
Sat 09:23:53 PM 39.1728 -105.4122 44° Northeast 403 464 23,100 -1,511 Descending Denver Center
Sat 09:25:06 PM 39.2606 -105.3003 45° Northeast 358 412 21,600 -1,422 Descending Denver Center
Sat 09:26:08 PM 39.3375 -105.2275 36° Northeast 340 391 19,900 -1,659 Descending Denver Center
Sat 09:27:09 PM 39.4161 -105.1467 38° Northeast 335 386 18,200 -1,426 Descending Denver Center
Sat 09:28:10 PM 39.4914 -105.0789 35° Northeast 333 383 17,000 -585 Descending Denver Center
Sat 09:29:12 PM 39.5617 -105.0058 39° Northeast 326 375 17,000 -780 Level Denver Center
Sat 09:30:13 PM 39.6394 -104.9306 37° Northeast 321 369 15,400 -1,377 Descending Denver Center
Sat 09:31:14 PM 39.7083 -104.8628 37° Northeast 313 360 14,200 -829 Descending Denver Center
Sat 09:32:16 PM 39.7839 -104.8522 North 276 318 13,700 -488 Descending Denver Center
Sat 09:33:17 PM 39.8475 -104.8456 North 232 267 13,200 -689 Descending Denver Center
Sat 09:34:18 PM 39.8961 -104.8433 North 208 239 12,300 -1,073 Descending Denver Center
Sat 09:35:20 PM 39.9672 -104.8411 North 207 238 11,000 -1,073 Descending Denver Center
Sat 09:36:21 PM 40.0228 -104.8397 North 201 231 10,100 -984 Descending Denver Center
Sat 09:37:22 PM 40.0736 -104.8256 12° North 201 231 9,000 -976 Descending Denver Center
Sat 09:38:24 PM 40.0719 -104.7511 92° East 189 217 8,100 -585 Descending Denver Center
Sat 09:39:25 PM 40.0286 -104.7181 150° Southeast 178 205 7,800 -585 Descending Denver Center
Sat 09:40:27 PM 39.9878 -104.6903 152° Southeast 168 193 6,900 -780 Descending Denver Center
Sat 09:41:28 PM 39.9414 -104.6864 176° South 166 191 6,200 -732 Descending Denver Center
Sat 09:42:30 PM 39.9006 -104.6869 181° South 139 160 5,400 -774 Descending Denver Center
Sat 09:44:00 PM 39.8617 -104.6732 North  Level Estimated
Sat 09:51:00 PM 39.8617 -104.6732 North  Level Estimated
Sat 09:52:00 PM 39.8617 -104.6732 North  Level Estimated
Sat 09:53:00 PM 39.8617 -104.6732 North  Level Estimated

Login

Don't have an account? Register now (free) for customized features, flight alerts, and more!